createdAt,value
2015-11-28T00:00:02.073Z,40.49
2015-11-28T00:00:14.433Z,40.12
2015-11-28T00:00:26.808Z,40.21
2015-11-28T00:00:39.183Z,40.3
2015-11-28T00:00:51.542Z,40.3
2015-11-28T00:01:03.904Z,40.12
2015-11-28T00:01:16.264Z,39.83
2015-11-28T00:01:28.639Z,39.74
2015-11-28T00:01:41.014Z,39.83
2015-11-28T00:01:53.373Z,39.55
2015-11-28T00:02:05.767Z,39.36
2015-11-28T00:02:18.142Z,39.46
2015-11-28T00:02:30.532Z,38.7
2015-11-28T00:02:42.876Z,38.98
2015-11-28T00:02:55.236Z,38.8
2015-11-28T00:03:07.613Z,38.61
2015-11-28T00:03:19.972Z,38.7
2015-11-28T00:03:32.316Z,38.51
2015-11-28T00:03:44.675Z,38.04
2015-11-28T00:03:57.034Z,38.14
2015-11-28T00:04:09.459Z,38.32
2015-11-28T00:04:21.928Z,37.66
2015-11-28T00:04:34.287Z,37.85
2015-11-28T00:04:46.631Z,37.95
2015-11-28T00:04:58.991Z,37.66
2015-11-28T00:05:11.369Z,37.29
2015-11-28T00:05:23.728Z,37.19
2015-11-28T00:05:36.150Z,36.91
2015-11-28T00:05:48.525Z,37.29
2015-11-28T00:06:00.900Z,36.44
2015-11-28T00:06:13.278Z,36.54
2015-11-28T00:06:25.668Z,36.44
2015-11-28T00:06:38.075Z,35.97
2015-11-28T00:06:50.434Z,35.78
2015-11-28T00:07:02.793Z,35.78
2015-11-28T00:07:15.156Z,35.69
2015-11-28T00:07:27.515Z,35.03
2015-11-28T00:07:39.875Z,35.22
2015-11-28T00:07:52.234Z,34.84
2015-11-28T00:08:04.609Z,34.94
2015-11-28T00:08:16.986Z,34.56
2015-11-28T00:08:29.361Z,34.37
2015-11-28T00:08:41.720Z,34.37
2015-11-28T00:08:53.361Z,34.56
2015-11-28T00:09:05.752Z,34.37
2015-11-28T00:09:18.098Z,33.9
2015-11-28T00:09:30.458Z,33.9
2015-11-28T00:09:42.817Z,34.18
2015-11-28T00:09:55.192Z,33.9
2015-11-28T00:10:07.661Z,33.71
2015-11-28T00:10:20.133Z,33.81
2015-11-28T00:10:32.492Z,33.43
2015-11-28T00:10:44.867Z,33.43
2015-11-28T00:10:57.211Z,33.71
2015-11-28T00:11:09.570Z,33.43
2015-11-28T00:11:21.932Z,33.05
2015-11-28T00:11:34.292Z,33.24
2015-11-28T00:11:46.651Z,33.15
2015-11-28T00:11:59.026Z,33.05
2015-11-28T00:12:11.464Z,33.15
2015-11-28T00:12:23.889Z,32.86
2015-11-28T00:12:36.248Z,32.39
2015-11-28T00:12:48.607Z,32.68
2015-11-28T00:13:00.951Z,32.49
2015-11-28T00:13:13.310Z,32.39
2015-11-28T00:13:25.734Z,32.39
2015-11-28T00:13:38.109Z,32.02
2015-11-28T00:13:50.469Z,32.2
2015-11-28T00:14:02.844Z,32.58
2015-11-28T00:14:15.219Z,32.3
2015-11-28T00:14:27.612Z,31.92
2015-11-28T00:14:39.800Z,31.92
2015-11-28T00:14:52.159Z,32.02
2015-11-28T00:15:04.565Z,32.11
2015-11-28T00:15:16.987Z,31.92
2015-11-28T00:15:29.364Z,31.92
2015-11-28T00:15:41.567Z,31.54
2015-11-28T00:15:53.927Z,31.54
2015-11-28T00:16:06.302Z,31.45
2015-11-28T00:16:18.739Z,31.54
2015-11-28T00:16:31.195Z,31.45
2015-11-28T00:16:43.539Z,31.45
2015-11-28T00:16:55.914Z,31.36
2015-11-28T00:17:08.274Z,31.07
2015-11-28T00:17:20.695Z,31.17
2015-11-28T00:17:33.120Z,31.17
2015-11-28T00:17:45.480Z,31.17
2015-11-28T00:17:57.855Z,31.17
2015-11-28T00:18:10.230Z,31.17
2015-11-28T00:18:22.620Z,31.45
2015-11-28T00:18:34.983Z,30.98
2015-11-28T00:18:47.373Z,30.88
2015-11-28T00:18:59.717Z,31.07
2015-11-28T00:19:12.076Z,31.07
2015-11-28T00:19:24.420Z,31.07
2015-11-28T00:19:36.782Z,31.07
2015-11-28T00:19:49.141Z,31.17
2015-11-28T00:20:01.516Z,31.17
2015-11-28T00:20:13.891Z,31.07
2015-11-28T00:20:26.297Z,31.36
2015-11-28T00:20:38.739Z,31.54
2015-11-28T00:20:51.098Z,31.45
2015-11-28T00:21:03.457Z,31.54
2015-11-28T00:21:15.801Z,31.73
2015-11-28T00:21:28.176Z,31.36
2015-11-28T00:21:40.538Z,31.45
2015-11-28T00:21:52.897Z,31.45
2015-11-28T00:22:05.272Z,31.54
2015-11-28T00:22:17.678Z,31.73
2015-11-28T00:22:30.116Z,31.73
2015-11-28T00:22:42.478Z,31.64
2015-11-28T00:22:54.837Z,31.54
2015-11-28T00:23:07.181Z,31.54
2015-11-28T00:23:19.556Z,31.73
2015-11-28T00:23:31.947Z,31.73
2015-11-28T00:23:44.214Z,31.54
2015-11-28T00:23:56.589Z,31.54
2015-11-28T00:24:08.980Z,31.64
2015-11-28T00:24:21.355Z,31.64
2015-11-28T00:24:33.730Z,32.02
2015-11-28T00:24:46.093Z,31.83
2015-11-28T00:24:58.437Z,31.92
2015-11-28T00:25:10.781Z,31.92
2015-11-28T00:25:23.125Z,31.83
2015-11-28T00:25:35.484Z,31.83
2015-11-28T00:25:47.830Z,32.02
2015-11-28T00:26:00.330Z,32.11
2015-11-28T00:26:12.705Z,32.02
2015-11-28T00:26:25.080Z,32.11
2015-11-28T00:26:36.736Z,31.83
2015-11-28T00:26:49.083Z,31.92
2015-11-28T00:27:01.442Z,32.11
2015-11-28T00:27:13.802Z,31.92
2015-11-28T00:27:26.161Z,32.02
2015-11-28T00:27:38.520Z,32.02
2015-11-28T00:27:50.944Z,32.02
2015-11-28T00:28:03.382Z,31.92
2015-11-28T00:28:15.600Z,32.02
2015-11-28T00:28:27.991Z,31.92
2015-11-28T00:28:40.350Z,32.11
2015-11-28T00:28:52.698Z,32.3
2015-11-28T00:29:05.120Z,32.39
2015-11-28T00:29:17.511Z,32.3
2015-11-28T00:29:29.917Z,32.39
2015-11-28T00:29:42.261Z,32.49
2015-11-28T00:29:54.638Z,32.58
2015-11-28T00:30:07.013Z,32.39
2015-11-28T00:30:19.403Z,32.39
2015-11-28T00:30:31.778Z,32.39
2015-11-28T00:30:44.138Z,32.77
2015-11-28T00:30:56.500Z,32.96
2015-11-28T00:31:08.859Z,32.96
2015-11-28T00:31:21.219Z,33.05
2015-11-28T00:31:33.578Z,33.34
2015-11-28T00:31:45.941Z,33.34
2015-11-28T00:31:58.300Z,33.15
2015-11-28T00:32:10.722Z,33.15
2015-11-28T00:32:23.097Z,33.24
2015-11-28T00:32:35.456Z,33.05
2015-11-28T00:32:47.818Z,32.58
2015-11-28T00:33:00.224Z,33.15
2015-11-28T00:33:12.583Z,33.52
2015-11-28T00:33:24.943Z,33.34
2015-11-28T00:33:37.302Z,33.34
2015-11-28T00:33:49.664Z,33.52
2015-11-28T00:34:02.039Z,33.52
2015-11-28T00:34:14.414Z,33.81
2015-11-28T00:34:26.805Z,34
2015-11-28T00:34:39.149Z,34.47
2015-11-28T00:34:51.511Z,34.37
2015-11-28T00:35:03.917Z,34.66
2015-11-28T00:35:16.370Z,34.84
2015-11-28T00:35:28.730Z,34.84
2015-11-28T00:35:41.089Z,35.03
2015-11-28T00:35:53.467Z,35.5
2015-11-28T00:36:05.842Z,35.6
2015-11-28T00:36:18.233Z,35.88
2015-11-28T00:36:30.639Z,35.97
2015-11-28T00:36:43.045Z,36.44
2015-11-28T00:36:55.407Z,36.44
2015-11-28T00:37:07.766Z,36.44
2015-11-28T00:37:20.125Z,37.01
2015-11-28T00:37:32.500Z,36.82
2015-11-28T00:37:44.860Z,37.29
2015-11-28T00:37:57.222Z,37.29
2015-11-28T00:38:09.660Z,37.57
2015-11-28T00:38:22.082Z,37.95
2015-11-28T00:38:34.441Z,37.95
2015-11-28T00:38:46.800Z,37.76
2015-11-28T00:38:59.163Z,37.76
2015-11-28T00:39:11.522Z,38.14
2015-11-28T00:39:23.881Z,38.42
2015-11-28T00:39:36.256Z,38.42
2015-11-28T00:39:48.616Z,38.61
2015-11-28T00:40:01.008Z,38.8
2015-11-28T00:40:13.368Z,38.8
2015-11-28T00:40:25.743Z,38.89
2015-11-28T00:40:38.212Z,39.74
2015-11-28T00:40:50.571Z,39.27
2015-11-28T00:41:02.933Z,39.64
2015-11-28T00:41:14.574Z,39.83
2015-11-28T00:41:26.933Z,40.21
2015-11-28T00:41:39.293Z,40.12
2015-11-28T00:41:51.668Z,40.49
2015-11-28T00:42:04.061Z,40.68
2015-11-28T00:42:16.452Z,40.59
2015-11-28T00:42:28.811Z,41.44
2015-11-28T00:42:41.171Z,41.15
2015-11-28T00:42:53.530Z,41.44
2015-11-28T00:43:05.877Z,41.44
2015-11-28T00:43:18.236Z,41.34
2015-11-28T00:43:30.611Z,41.81
2015-11-28T00:43:43.033Z,41.81
2015-11-28T00:43:55.455Z,42.28
2015-11-28T00:44:07.832Z,42.28
2015-11-28T00:44:20.207Z,42.1
2015-11-28T00:44:32.582Z,42
2015-11-28T00:44:44.223Z,42.19
2015-11-28T00:44:56.582Z,42.47
2015-11-28T00:45:08.976Z,42.47
2015-11-28T00:45:21.413Z,42.57
2015-11-28T00:45:33.757Z,42.38
2015-11-28T00:45:46.132Z,42.85
2015-11-28T00:45:58.507Z,42.85
2015-11-28T00:46:10.885Z,42.94
2015-11-28T00:46:23.260Z,42.85
2015-11-28T00:46:35.635Z,43.23
2015-11-28T00:46:48.010Z,43.32
2015-11-28T00:47:00.369Z,43.32
2015-11-28T00:47:12.732Z,43.51
2015-11-28T00:47:25.091Z,43.6
2015-11-28T00:47:37.450Z,43.32
2015-11-28T00:47:49.841Z,43.7
2015-11-28T00:48:02.216Z,43.98
2015-11-28T00:48:14.672Z,44.45
2015-11-28T00:48:27.078Z,44.35
2015-11-28T00:48:39.453Z,44.07
2015-11-28T00:48:51.797Z,44.64
2015-11-28T00:49:04.156Z,44.54
2015-11-28T00:49:16.519Z,44.64
2015-11-28T00:49:28.878Z,44.92
2015-11-28T00:49:41.238Z,44.73
2015-11-28T00:49:53.628Z,44.82
2015-11-28T00:50:06.003Z,44.54
2015-11-28T00:50:18.380Z,44.45
2015-11-28T00:50:30.740Z,44.45
2015-11-28T00:50:43.115Z,44.45
2015-11-28T00:50:55.474Z,45.01
2015-11-28T00:51:07.833Z,44.92
2015-11-28T00:51:20.196Z,45.01
2015-11-28T00:51:32.571Z,44.92
2015-11-28T00:51:44.930Z,44.64
2015-11-28T00:51:57.305Z,44.73
2015-11-28T00:52:09.696Z,44.64
2015-11-28T00:52:22.058Z,45.1
2015-11-28T00:52:34.449Z,44.64
2015-11-28T00:52:46.808Z,44.64
2015-11-28T00:52:59.167Z,45.01
2015-11-28T00:53:11.527Z,45.01
2015-11-28T00:53:23.888Z,45.01
2015-11-28T00:53:36.263Z,45.1
2015-11-28T00:53:48.638Z,45.1
2015-11-28T00:54:01.013Z,45.29
2015-11-28T00:54:13.357Z,45.29
2015-11-28T00:54:25.735Z,45.48
2015-11-28T00:54:38.094Z,45.39
2015-11-28T00:54:50.454Z,45.48
2015-11-28T00:55:02.813Z,45.39
2015-11-28T00:55:15.172Z,45.86
2015-11-28T00:55:27.535Z,45.86
2015-11-28T00:55:39.910Z,45.48
2015-11-28T00:55:52.347Z,45.39
2015-11-28T00:56:04.769Z,45.39
2015-11-28T00:56:17.129Z,45.48
2015-11-28T00:56:29.491Z,45.57
2015-11-28T00:56:41.850Z,45.57
2015-11-28T00:56:54.225Z,45.67
2015-11-28T00:57:06.600Z,45.86
2015-11-28T00:57:18.960Z,45.95
2015-11-28T00:57:30.618Z,46.14
2015-11-28T00:57:42.993Z,46.05
2015-11-28T00:57:55.384Z,46.05
2015-11-28T00:58:07.743Z,46.42
2015-11-28T00:58:20.102Z,46.52
2015-11-28T00:58:32.465Z,46.14
2015-11-28T00:58:44.808Z,46.23
2015-11-28T00:58:57.152Z,46.14
2015-11-28T00:59:09.527Z,46.33
2015-11-28T00:59:21.887Z,46.42
2015-11-28T00:59:34.265Z,46.61
2015-11-28T00:59:46.640Z,46.42
2015-11-28T00:59:59.077Z,46.23
2015-11-28T01:00:11.468Z,46.05
2015-11-28T01:00:23.827Z,46.23
2015-11-28T01:00:36.189Z,46.05
2015-11-28T01:00:48.549Z,45.86
2015-11-28T01:01:00.908Z,45.95
2015-11-28T01:01:13.330Z,45.95
2015-11-28T01:01:25.705Z,45.95
2015-11-28T01:01:38.066Z,46.05
2015-11-28T01:01:50.441Z,46.05
2015-11-28T01:02:02.816Z,46.14
2015-11-28T01:02:15.207Z,45.86
2015-11-28T01:02:27.566Z,46.33
2015-11-28T01:02:39.945Z,46.23
2015-11-28T01:02:52.305Z,46.14
2015-11-28T01:03:04.649Z,46.61
2015-11-28T01:03:17.024Z,46.33
2015-11-28T01:03:29.383Z,46.42
2015-11-28T01:03:41.760Z,46.33
2015-11-28T01:03:54.151Z,46.23
2015-11-28T01:04:06.557Z,46.33
2015-11-28T01:04:18.916Z,46.23
2015-11-28T01:04:31.276Z,46.05
2015-11-28T01:04:43.638Z,46.23
2015-11-28T01:04:55.997Z,46.61
2015-11-28T01:05:08.357Z,46.8
2015-11-28T01:05:20.716Z,46.8
2015-11-28T01:05:33.075Z,47.18
2015-11-28T01:05:45.453Z,46.89
2015-11-28T01:05:57.844Z,47.08
2015-11-28T01:06:10.203Z,47.46
2015-11-28T01:06:22.563Z,47.37
2015-11-28T01:06:34.922Z,47.18
2015-11-28T01:06:47.284Z,47.55
2015-11-28T01:06:59.643Z,47.65
2015-11-28T01:07:12.049Z,48.03
2015-11-28T01:07:24.487Z,47.84
2015-11-28T01:07:36.846Z,48.78
2015-11-28T01:07:48.505Z,48.5
2015-11-28T01:08:00.896Z,48.69
2015-11-28T01:08:13.255Z,48.59
2015-11-28T01:08:25.677Z,48.88
2015-11-28T01:08:38.083Z,49.25
2015-11-28T01:08:50.446Z,49.44
2015-11-28T01:09:02.805Z,49.44
2015-11-28T01:09:15.165Z,49.35
2015-11-28T01:09:27.524Z,49.44
2015-11-28T01:09:39.930Z,50.01
2015-11-28T01:09:52.402Z,49.72
2015-11-28T01:10:04.777Z,50.29
2015-11-28T01:10:17.136Z,50.29
2015-11-28T01:10:29.527Z,50.2
2015-11-28T01:10:41.886Z,50.38
2015-11-28T01:10:54.249Z,50.76
2015-11-28T01:11:06.655Z,51.04
2015-11-28T01:11:19.092Z,50.76
2015-11-28T01:11:31.452Z,51.04
2015-11-28T01:11:43.827Z,50.85
2015-11-28T01:11:56.204Z,51.32
2015-11-28T01:12:08.641Z,51.32
2015-11-28T01:12:21.063Z,51.23
2015-11-28T01:12:33.423Z,51.23
2015-11-28T01:12:45.784Z,51.23
2015-11-28T01:12:58.143Z,51.42
2015-11-28T01:13:10.487Z,51.42
2015-11-28T01:13:22.940Z,51.7
2015-11-28T01:13:35.393Z,51.61
2015-11-28T01:13:47.787Z,51.79
2015-11-28T01:14:00.146Z,51.89
2015-11-28T01:14:12.490Z,51.89
2015-11-28T01:14:24.849Z,51.89
2015-11-28T01:14:37.209Z,52.26
2015-11-28T01:14:49.571Z,51.98
2015-11-28T01:15:01.931Z,52.64
2015-11-28T01:15:14.290Z,52.36
2015-11-28T01:15:26.665Z,53.11
2015-11-28T01:15:39.134Z,53.11
2015-11-28T01:15:51.496Z,53.11
2015-11-28T01:16:03.855Z,52.83
2015-11-28T01:16:16.199Z,52.92
2015-11-28T01:16:28.559Z,53.02
2015-11-28T01:16:40.965Z,52.92
2015-11-28T01:16:53.421Z,53.2
2015-11-28T01:17:05.780Z,53.3
2015-11-28T01:17:18.140Z,53.11
2015-11-28T01:17:30.499Z,53.49
2015-11-28T01:17:42.890Z,53.11
2015-11-28T01:17:55.268Z,53.02
2015-11-28T01:18:07.627Z,53.2
2015-11-28T01:18:19.283Z,52.83
2015-11-28T01:18:31.627Z,53.11
2015-11-28T01:18:43.986Z,53.67
2015-11-28T01:18:56.348Z,53.77
2015-11-28T01:19:08.707Z,53.2
2015-11-28T01:19:21.067Z,53.2
2015-11-28T01:19:33.457Z,53.86
2015-11-28T01:19:45.879Z,53.86
2015-11-28T01:19:58.257Z,54.05
2015-11-28T01:20:10.648Z,53.67
2015-11-28T01:20:23.023Z,53.96
2015-11-28T01:20:35.413Z,54.05
2015-11-28T01:20:47.788Z,53.58
2015-11-28T01:21:00.135Z,53.96
2015-11-28T01:21:12.494Z,53.96
2015-11-28T01:21:24.869Z,53.77
2015-11-28T01:21:37.213Z,54.24
2015-11-28T01:21:49.588Z,54.15
2015-11-28T01:22:01.966Z,54.15
2015-11-28T01:22:14.341Z,54.71
2015-11-28T01:22:56.872Z,54.9
2015-11-28T01:23:08.546Z,55.18
2015-11-28T01:23:20.890Z,55.47
2015-11-28T01:23:33.265Z,55.65
2015-11-28T01:23:45.624Z,55.84
2015-11-28T01:23:58.015Z,55.75
2015-11-28T01:24:09.674Z,56.41
2015-11-28T01:24:22.065Z,55.75
2015-11-28T01:24:34.424Z,56.22
2015-11-28T01:24:46.784Z,56.5
2015-11-28T01:24:59.127Z,56.88
2015-11-28T01:25:11.505Z,56.79
2015-11-28T01:25:23.849Z,56.79
2015-11-28T01:25:36.209Z,57.07
2015-11-28T01:25:48.584Z,57.16
2015-11-28T01:26:00.974Z,57.16
2015-11-28T01:26:13.351Z,57.26
2015-11-28T01:26:25.711Z,57.45
2015-11-28T01:26:38.086Z,57.63
2015-11-28T01:26:50.429Z,57.54
2015-11-28T01:27:02.804Z,57.63
2015-11-28T01:27:15.151Z,57.45
2015-11-28T01:27:27.557Z,57.92
2015-11-28T01:27:39.964Z,57.73
2015-11-28T01:27:52.339Z,57.92
2015-11-28T01:28:04.792Z,58.01
2015-11-28T01:28:17.170Z,57.82
2015-11-28T01:28:29.529Z,58.48
2015-11-28T01:28:41.888Z,58.48
2015-11-28T01:28:54.248Z,58.58
2015-11-28T01:29:06.592Z,58.76
2015-11-28T01:29:18.954Z,58.86
2015-11-28T01:29:31.313Z,58.95
2015-11-28T01:29:43.688Z,59.23
2015-11-28T01:29:56.079Z,59.33
2015-11-28T01:30:08.454Z,59.23
2015-11-28T01:30:20.800Z,59.23
2015-11-28T01:30:33.159Z,59.52
2015-11-28T01:30:45.518Z,59.7
2015-11-28T01:30:57.878Z,59.8
2015-11-28T01:31:10.237Z,59.89
2015-11-28T01:31:22.584Z,60.27
2015-11-28T01:31:34.943Z,60.17
2015-11-28T01:31:47.287Z,60.46
2015-11-28T01:31:59.709Z,60.46
2015-11-28T01:32:12.115Z,60.83
2015-11-28T01:32:24.478Z,60.74
2015-11-28T01:32:36.837Z,60.74
2015-11-28T01:32:49.040Z,60.74
2015-11-28T01:33:01.399Z,60.55
2015-11-28T01:33:13.759Z,61.21
2015-11-28T01:33:26.137Z,61.21
2015-11-28T01:33:38.512Z,61.21
2015-11-28T01:33:50.871Z,61.4
2015-11-28T01:34:03.246Z,61.21
2015-11-28T01:34:15.621Z,61.49
2015-11-28T01:34:28.015Z,61.68
2015-11-28T01:34:40.374Z,61.77
2015-11-28T01:34:52.734Z,61.87
2015-11-28T01:35:05.093Z,62.06
2015-11-28T01:35:16.734Z,62.06
2015-11-28T01:35:29.142Z,62.34
2015-11-28T01:35:41.548Z,62.53
2015-11-28T01:35:53.923Z,62.72
2015-11-28T01:36:05.579Z,62.53
2015-11-28T01:36:17.986Z,62.72
2015-11-28T01:36:30.364Z,62.81
2015-11-28T01:36:42.723Z,62.91
2015-11-28T01:36:55.082Z,62.91
2015-11-28T01:37:07.442Z,63
2015-11-28T01:37:19.785Z,63
2015-11-28T01:37:32.195Z,63
2015-11-28T01:37:44.601Z,63.09
2015-11-28T01:37:56.976Z,63.09
2015-11-28T01:38:09.351Z,63.28
2015-11-28T01:38:20.992Z,63.28
2015-11-28T01:38:33.354Z,63.28
2015-11-28T01:38:45.713Z,63.19
2015-11-28T01:38:58.057Z,63.09
2015-11-28T01:39:10.416Z,63.09
2015-11-28T01:39:22.823Z,63.38
2015-11-28T01:39:35.185Z,63.47
2015-11-28T01:39:47.560Z,63.57
2015-11-28T01:39:59.935Z,63.57
2015-11-28T01:40:12.310Z,63.47
2015-11-28T01:40:24.654Z,63.57
2015-11-28T01:40:37.032Z,63.38
2015-11-28T01:40:49.407Z,63.28
2015-11-28T01:41:01.766Z,63.57
2015-11-28T01:41:14.126Z,63.66
2015-11-28T01:41:26.485Z,63.47
2015-11-28T01:41:38.862Z,63.66
2015-11-28T01:41:51.237Z,63.47
2015-11-28T01:42:03.612Z,63.57
2015-11-28T01:42:15.971Z,63.47
2015-11-28T01:42:28.315Z,63.38
2015-11-28T01:42:40.693Z,63.47
2015-11-28T01:42:53.037Z,63.57
2015-11-28T01:43:05.396Z,63.38
2015-11-28T01:43:17.756Z,63.47
2015-11-28T01:43:30.115Z,63.57
2015-11-28T01:43:42.493Z,63.47
2015-11-28T01:43:54.165Z,63.38
2015-11-28T01:44:06.524Z,63.38
2015-11-28T01:44:18.884Z,63.38
2015-11-28T01:44:31.290Z,63.57
2015-11-28T01:44:43.652Z,63.38
2015-11-28T01:44:56.012Z,64.13
2015-11-28T01:45:08.215Z,63.38
2015-11-28T01:45:20.574Z,63.75
2015-11-28T01:45:32.933Z,63.66
2015-11-28T01:45:45.357Z,63.47
2015-11-28T01:45:57.748Z,63.47
2015-11-28T01:46:10.092Z,63.47
2015-11-28T01:46:22.451Z,63.47
2015-11-28T01:46:34.810Z,63.47
2015-11-28T01:46:47.157Z,63.47
2015-11-28T01:46:59.517Z,63.57
2015-11-28T01:47:11.876Z,63.75
2015-11-28T01:47:24.235Z,63.94
2015-11-28T01:47:36.626Z,63.57
2015-11-28T01:47:49.081Z,63.66
2015-11-28T01:48:01.472Z,63.66
2015-11-28T01:48:13.831Z,63.75
2015-11-28T01:48:26.190Z,64.23
2015-11-28T01:48:38.534Z,63.85
2015-11-28T01:48:50.898Z,64.04
2015-11-28T01:49:03.304Z,64.04
2015-11-28T01:49:15.726Z,64.23
2015-11-28T01:49:28.085Z,63.94
2015-11-28T01:49:40.463Z,64.04
2015-11-28T01:49:52.854Z,64.23
2015-11-28T01:50:05.260Z,64.51
2015-11-28T01:50:17.651Z,64.41
2015-11-28T01:50:29.307Z,64.51
2015-11-28T01:50:41.668Z,64.51
2015-11-28T01:50:54.028Z,64.41
2015-11-28T01:51:06.371Z,64.32
2015-11-28T01:51:18.746Z,64.32
2015-11-28T01:51:31.184Z,64.51
2015-11-28T01:51:43.608Z,64.51
2015-11-28T01:51:55.998Z,64.6
2015-11-28T01:52:08.436Z,64.6
2015-11-28T01:52:20.795Z,64.7
2015-11-28T01:52:33.155Z,64.51
2015-11-28T01:52:44.814Z,64.7
2015-11-28T01:52:57.158Z,64.79
2015-11-28T01:53:09.517Z,64.6
2015-11-28T01:53:21.751Z,64.6
2015-11-28T01:53:34.126Z,64.6
2015-11-28T01:53:46.503Z,64.7
2015-11-28T01:53:58.847Z,64.6
2015-11-28T01:54:11.206Z,64.6
2015-11-28T01:54:23.566Z,64.79
2015-11-28T01:54:35.910Z,64.79
2015-11-28T01:54:48.272Z,64.51
2015-11-28T01:55:00.694Z,64.89
2015-11-28T01:55:13.053Z,64.98
2015-11-28T01:55:25.413Z,64.6
2015-11-28T01:55:37.788Z,65.07
2015-11-28T01:55:50.166Z,64.98
2015-11-28T01:56:02.541Z,65.07
2015-11-28T01:56:14.947Z,65.17
2015-11-28T01:56:26.681Z,64.79
2015-11-28T01:56:39.041Z,64.98
2015-11-28T01:56:51.403Z,64.79
2015-11-28T01:57:03.762Z,64.89
2015-11-28T01:57:16.122Z,65.36
2015-11-28T01:57:28.481Z,65.45
2015-11-28T01:57:40.872Z,65.26
2015-11-28T01:57:53.234Z,65.45
2015-11-28T01:58:05.593Z,65.73
2015-11-28T01:58:17.984Z,65.07
2015-11-28T01:58:30.375Z,65.26
2015-11-28T01:58:42.734Z,65.45
2015-11-28T01:58:55.095Z,65.36
2015-11-28T01:59:06.752Z,65.26
2015-11-28T01:59:18.970Z,65.26
2015-11-28T01:59:31.377Z,65.36
2015-11-28T01:59:43.767Z,65.64
2015-11-28T01:59:56.130Z,65.26
2015-11-28T02:00:07.770Z,65.26
2015-11-28T02:00:20.130Z,65.73
2015-11-28T02:00:32.505Z,65.26
2015-11-28T02:00:44.958Z,65.73
2015-11-28T02:00:57.336Z,65.64
2015-11-28T02:01:09.695Z,65.64
2015-11-28T02:01:22.070Z,65.36
2015-11-28T02:01:34.445Z,65.45
2015-11-28T02:01:46.820Z,65.55
2015-11-28T02:01:59.183Z,65.64
2015-11-28T02:02:11.573Z,65.73
2015-11-28T02:02:23.933Z,65.92
2015-11-28T02:02:36.292Z,66.02
2015-11-28T02:02:48.651Z,65.83
2015-11-28T02:03:01.014Z,65.73
2015-11-28T02:03:13.373Z,65.92
2015-11-28T02:03:25.732Z,65.64
2015-11-28T02:03:38.186Z,65.73
2015-11-28T02:03:50.623Z,65.55
2015-11-28T02:04:02.969Z,65.55
2015-11-28T02:04:15.328Z,65.45
2015-11-28T02:04:27.688Z,65.36
2015-11-28T02:04:40.031Z,65.36
2015-11-28T02:04:52.406Z,65.64
2015-11-28T02:05:04.784Z,65.17
2015-11-28T02:05:17.128Z,65.17
2015-11-28T02:05:29.487Z,65.17
2015-11-28T02:05:41.847Z,65.17
2015-11-28T02:05:54.222Z,65.45
2015-11-28T02:06:06.584Z,65.45
2015-11-28T02:06:18.944Z,65.26
2015-11-28T02:06:31.303Z,65.36
2015-11-28T02:06:43.662Z,65.07
2015-11-28T02:06:56.022Z,64.89
2015-11-28T02:07:08.384Z,64.79
2015-11-28T02:07:20.759Z,64.79
2015-11-28T02:07:33.150Z,64.89
2015-11-28T02:07:45.509Z,64.89
2015-11-28T02:07:57.884Z,65.07
2015-11-28T02:08:10.245Z,65.17
2015-11-28T02:08:22.605Z,65.17
2015-11-28T02:08:34.808Z,65.17
2015-11-28T02:08:47.167Z,64.98
2015-11-28T02:08:59.527Z,64.51
2015-11-28T02:09:11.937Z,64.6
2015-11-28T02:09:24.328Z,64.6
2015-11-28T02:09:36.703Z,64.79
2015-11-28T02:09:49.062Z,64.7
2015-11-28T02:10:01.421Z,64.7
2015-11-28T02:10:13.767Z,64.6
2015-11-28T02:10:26.111Z,64.7
2015-11-28T02:10:38.470Z,64.79
2015-11-28T02:10:50.830Z,64.51
2015-11-28T02:11:03.205Z,64.32
2015-11-28T02:11:15.598Z,64.51
2015-11-28T02:11:27.973Z,64.32
2015-11-28T02:11:40.364Z,64.13
2015-11-28T02:11:52.723Z,64.13
2015-11-28T02:12:05.083Z,64.32
2015-11-28T02:12:17.444Z,64.13
2015-11-28T02:12:29.803Z,64.13
2015-11-28T02:12:42.178Z,63.85
2015-11-28T02:12:54.522Z,63.57
2015-11-28T02:13:06.897Z,63.66
2015-11-28T02:13:19.276Z,63.66
2015-11-28T02:13:31.651Z,63.57
2015-11-28T02:13:44.010Z,63.47
2015-11-28T02:13:56.370Z,63.38
2015-11-28T02:14:08.729Z,63.57
2015-11-28T02:14:21.092Z,63.47
2015-11-28T02:14:33.451Z,63.19
2015-11-28T02:14:45.810Z,63.47
2015-11-28T02:14:58.170Z,63.57
2015-11-28T02:15:10.607Z,63.47
2015-11-28T02:15:22.984Z,63.38
2015-11-28T02:15:34.672Z,63.09
2015-11-28T02:15:47.015Z,63.09
2015-11-28T02:15:59.375Z,63.28
2015-11-28T02:16:11.734Z,63.19
2015-11-28T02:16:24.097Z,63.09
2015-11-28T02:16:36.456Z,62.91
2015-11-28T02:16:48.831Z,62.91
2015-11-28T02:17:01.190Z,62.81
2015-11-28T02:17:13.550Z,62.81
2015-11-28T02:17:25.927Z,62.72
2015-11-28T02:17:38.302Z,62.81
2015-11-28T02:17:50.677Z,62.81
2015-11-28T02:18:03.036Z,62.43
2015-11-28T02:18:15.458Z,62.53
2015-11-28T02:18:27.821Z,62.53
2015-11-28T02:18:40.196Z,62.62
2015-11-28T02:18:52.556Z,62.53
2015-11-28T02:19:04.915Z,62.53
2015-11-28T02:19:17.290Z,62.53
2015-11-28T02:19:29.667Z,62.62
2015-11-28T02:19:42.058Z,62.53
2015-11-28T02:19:54.401Z,62.62
2015-11-28T02:20:06.808Z,62.53
2015-11-28T02:20:19.245Z,62.53
2015-11-28T02:20:31.608Z,62.34
2015-11-28T02:20:43.951Z,62.62
2015-11-28T02:20:56.373Z,62.43
2015-11-28T02:21:08.779Z,62.43
2015-11-28T02:21:21.139Z,62.34
2015-11-28T02:21:33.517Z,62.43
2015-11-28T02:21:45.189Z,62.34
2015-11-28T02:21:57.548Z,62.34
2015-11-28T02:22:09.907Z,62.34
2015-11-28T02:22:22.314Z,62.43
2015-11-28T02:22:34.738Z,62.25
2015-11-28T02:22:47.097Z,62.15
2015-11-28T02:22:59.456Z,61.96
2015-11-28T02:23:11.816Z,62.34
2015-11-28T02:23:24.191Z,62.06
2015-11-28T02:23:36.584Z,61.96
2015-11-28T02:23:48.928Z,61.96
2015-11-28T02:24:01.366Z,62.15
2015-11-28T02:24:13.725Z,62.06
2015-11-28T02:24:26.084Z,62.06
2015-11-28T02:24:38.447Z,61.87
2015-11-28T02:24:50.806Z,61.77
2015-11-28T02:25:03.165Z,62.06
2015-11-28T02:25:15.525Z,61.96
2015-11-28T02:25:27.931Z,61.87
2015-11-28T02:25:40.309Z,61.68
2015-11-28T02:25:52.668Z,61.68
2015-11-28T02:26:05.043Z,61.77
2015-11-28T02:26:17.403Z,61.77
2015-11-28T02:26:29.778Z,61.59
2015-11-28T02:26:42.140Z,61.96
2015-11-28T02:26:54.500Z,61.77
2015-11-28T02:27:06.875Z,61.87
2015-11-28T02:27:19.265Z,61.77
2015-11-28T02:27:31.640Z,61.77
2015-11-28T02:27:44.017Z,61.59
2015-11-28T02:27:56.413Z,61.68
2015-11-28T02:28:08.772Z,61.77
2015-11-28T02:28:21.116Z,61.49
2015-11-28T02:28:33.475Z,61.59
2015-11-28T02:28:45.838Z,61.59
2015-11-28T02:28:58.197Z,61.49
2015-11-28T02:29:10.572Z,61.68
2015-11-28T02:29:22.947Z,61.59
2015-11-28T02:29:35.369Z,61.59
2015-11-28T02:29:47.091Z,61.77
2015-11-28T02:29:59.450Z,61.68
2015-11-28T02:30:11.794Z,61.68
2015-11-28T02:30:24.153Z,61.68
2015-11-28T02:30:36.497Z,61.49
2015-11-28T02:30:48.702Z,61.68
2015-11-28T02:31:01.171Z,61.59
2015-11-28T02:31:13.624Z,61.49
2015-11-28T02:31:26.014Z,61.49
2015-11-28T02:31:38.374Z,61.59
2015-11-28T02:31:50.736Z,61.68
2015-11-28T02:32:03.111Z,61.49
2015-11-28T02:32:15.517Z,61.68
2015-11-28T02:32:27.955Z,61.49
2015-11-28T02:32:40.380Z,61.68
2015-11-28T02:32:52.036Z,61.49
2015-11-28T02:33:04.395Z,61.59
2015-11-28T02:33:16.770Z,61.49
2015-11-28T02:33:29.177Z,61.49
2015-11-28T02:33:41.586Z,61.77
2015-11-28T02:33:53.977Z,61.77
2015-11-28T02:34:06.367Z,61.59
2015-11-28T02:34:18.570Z,61.68
2015-11-28T02:34:30.914Z,61.68
2015-11-28T02:34:43.275Z,61.87
2015-11-28T02:34:54.932Z,61.68
2015-11-28T02:35:07.307Z,61.96
2015-11-28T02:35:19.729Z,61.96
2015-11-28T02:35:32.104Z,62.25
2015-11-28T02:35:44.466Z,62.06
2015-11-28T02:35:56.810Z,61.96
2015-11-28T02:36:09.200Z,62.43
2015-11-28T02:36:21.575Z,62.34
2015-11-28T02:36:33.982Z,62.53
2015-11-28T02:36:46.344Z,62.43
2015-11-28T02:36:58.719Z,62.53
2015-11-28T02:37:11.110Z,62.72
2015-11-28T02:37:23.500Z,62.91
2015-11-28T02:37:35.781Z,63
2015-11-28T02:37:48.128Z,62.81
2015-11-28T02:38:00.488Z,62.91
2015-11-28T02:38:12.847Z,63.09
2015-11-28T02:38:25.206Z,63.19
2015-11-28T02:38:37.550Z,63.28
2015-11-28T02:38:49.975Z,63.19
2015-11-28T02:39:02.397Z,63.28
2015-11-28T02:39:14.803Z,63.09
2015-11-28T02:39:27.194Z,63.28
2015-11-28T02:39:39.600Z,63.28
2015-11-28T02:39:51.977Z,63.19
2015-11-28T02:40:04.321Z,63.38